Nerstrand, MN (55053)

6:18 AM CDT on September 05, 2015 (GMT -0500)
Sibley Swale | | Change Station
CLOSE
Current Station
Personal Weather Station
Location: Northfield, MN
Elevation: 1016 ft
Nearby Weather Stations

Elev 1016 ft 44.45 °N, 93.15 °W | Updated 19 seconds ago

Clear
Clear
73.8 °F
Feels Like 72 °F
N
2.7
Wind Variable Wind from SE
Gusts 4.7 mph

Today
High -- | Low -- °F
--% Chance of Precip.
Yesterday
High -- | Low -- °F
Precip. -- in
6:39 AM 7:41 PM
Waning Gibbous, 49% visible
Pressure 29.95 in
Visibility 10.0 miles
Clouds Clear
Heat Index 72 °F
Dew Point 70 °F
Humidity 89%
Rainfall 0.00 in
Snow Depth Not available.
UV 0 out of 12
Pollen 7.60 out of 12
Air Quality Not available.
Flu Activity Not available.
METAR KSYN 051113Z AUTO 18006KT 10SM VCTS CLR 24/21 A2995 RMK AO2 LTG DSNT SW THRU NW T02370205
Pressure 29.95 in
Visibility 10.0 miles
Clouds Clear
Heat Index 72 °F
Dew Point 70 °F
Humidity 89%
Rainfall 0.00 in
Snow Depth Not available.
UV 0 out of 12
Pollen 7.60 out of 12
Air Quality Not available.
Flu Activity Not available.
METAR KSYN 051113Z AUTO 18006KT 10SM VCTS CLR 24/21 A2995 RMK AO2 LTG DSNT SW THRU NW T02370205

10-Day Weather Forecast

×

Almanac

Astronomy

Sep. 05, 2015 Rise Set
Actual Time
Civil Twilight
Nautical Twilight
Astronomical Twilight
Moon
Length of Visible Light
Length of Day
Tomorrow will be .
, % of the Moon is Illuminated

Today's Extremes

State Highs State Lows

Community

WunderPhotos

Upload Photos

1,852,445 photos uploaded!

WunderBlogs® & News

Nearby

Air Quality

  Air Quality AQ Index Pollutant
Not available.

Snow Depth

Station Depth Elevation

Earthquake Activity

City Distance Mag. Time & Date
Minimum magnitude displayed is 2.5.

Coastal Water Temperatures

Place Temperature

Stations

Nearby Weather Stations

Station Location Temp. Windchill Dew Point Humidity Wind Precip. Elev Updated Type